createdAt,value
2018-05-15T00:00:42.379Z,97569.34
2018-05-15T00:01:47.130Z,97572.26
2018-05-15T00:02:51.901Z,97570.13
2018-05-15T00:03:56.941Z,97565.50
2018-05-15T00:05:02.088Z,97574.72
2018-05-15T00:06:06.571Z,97564.79
2018-05-15T00:07:11.004Z,97569.17
2018-05-15T00:08:16.145Z,97575.72
2018-05-15T00:09:20.549Z,97576.73
2018-05-15T00:10:25.544Z,97569.37
2018-05-15T00:11:30.279Z,97575.60
2018-05-15T00:12:35.554Z,97573.96
2018-05-15T00:13:40.014Z,97576.39
2018-05-15T00:14:45.419Z,97575.16
2018-05-15T00:15:50.441Z,97573.77
2018-05-15T00:16:55.543Z,97577.06
2018-05-15T00:18:01.128Z,97577.31
2018-05-15T00:19:05.608Z,97578.14
2018-05-15T00:20:10.042Z,97577.06
2018-05-15T00:21:14.770Z,97582.00
2018-05-15T00:22:19.352Z,97582.50
2018-05-15T00:23:23.808Z,97582.65
2018-05-15T00:24:28.232Z,97583.19
2018-05-15T00:25:32.811Z,97578.92
2018-05-15T00:26:38.720Z,97583.83
2018-05-15T00:27:44.110Z,97578.55
2018-05-15T00:28:49.333Z,97579.65
2018-05-15T00:29:53.856Z,97581.91
2018-05-15T00:30:58.344Z,97580.33
2018-05-15T00:32:03.133Z,97575.76
2018-05-15T00:33:08.745Z,97578.47
2018-05-15T00:34:13.962Z,97580.05
2018-05-15T00:35:18.462Z,97578.61
2018-05-15T00:36:23.396Z,97577.53
2018-05-15T00:37:28.426Z,97571.35
2018-05-15T00:38:34.512Z,97572.65
2018-05-15T00:39:39.710Z,97576.57
2018-05-15T00:40:44.561Z,97572.84
2018-05-15T00:41:49.055Z,97571.75
2018-05-15T00:42:53.481Z,97570.73
2018-05-15T00:43:57.916Z,97572.37
2018-05-15T00:45:02.348Z,97573.56
2018-05-15T00:46:06.884Z,97576.34
2018-05-15T00:47:12.268Z,97575.93
2018-05-15T00:48:18.107Z,97578.52
2018-05-15T00:49:22.557Z,97571.90
2018-05-15T00:50:26.980Z,97572.64
2018-05-15T00:51:31.420Z,97574.27
2018-05-15T00:52:36.772Z,97571.09
2018-05-15T00:53:41.928Z,97563.84
2018-05-15T00:54:47.388Z,97566.21
2018-05-15T00:55:51.968Z,97566.55
2018-05-15T00:56:58.260Z,97566.16
2018-05-15T00:58:02.695Z,97569.05
2018-05-15T00:59:07.147Z,97571.15
2018-05-15T01:00:11.997Z,97566.09
2018-05-15T01:01:16.427Z,97564.31
2018-05-15T01:02:20.859Z,97569.19
2018-05-15T01:03:25.275Z,97568.91
2018-05-15T01:04:29.746Z,97570.50
2018-05-15T01:05:34.698Z,97576.25
2018-05-15T01:06:39.672Z,97573.80
2018-05-15T01:07:44.172Z,97576.61
2018-05-15T01:08:48.644Z,97575.67
2018-05-15T01:09:53.088Z,97574.70
2018-05-15T01:10:57.605Z,97578.56
2018-05-15T01:12:03.266Z,97579.06
2018-05-15T01:13:09.124Z,97579.42
2018-05-15T01:14:13.568Z,97580.19
2018-05-15T01:15:18.185Z,97584.59
2018-05-15T01:16:22.963Z,97575.45
2018-05-15T01:17:28.369Z,97575.27
2018-05-15T01:18:34.537Z,97574.59
2018-05-15T01:19:39.840Z,97569.37
2018-05-15T01:20:45.381Z,97574.59
2018-05-15T01:21:50.886Z,97570.75
2018-05-15T01:22:55.780Z,97570.08
2018-05-15T01:24:00.258Z,97573.62
2018-05-15T01:25:05.672Z,97578.02
2018-05-15T01:26:10.545Z,97575.93
2018-05-15T01:27:15.028Z,97574.86
2018-05-15T01:28:19.885Z,97578.52
2018-05-15T01:29:24.499Z,97570.30
2018-05-15T01:30:29.035Z,97574.73
2018-05-15T01:31:33.516Z,97573.50
2018-05-15T01:32:38.981Z,97568.98
2018-05-15T01:33:43.497Z,97571.29
2018-05-15T01:34:48.009Z,97570.11
2018-05-15T01:35:52.500Z,97569.02
2018-05-15T01:36:56.997Z,97563.95
2018-05-15T01:38:01.461Z,97563.23
2018-05-15T01:39:06.231Z,97568.55
2018-05-15T01:40:10.837Z,97568.47
2018-05-15T01:41:15.375Z,97562.32
2018-05-15T01:42:19.941Z,97569.50
2018-05-15T01:43:24.553Z,97565.07
2018-05-15T01:44:29.212Z,97564.97
2018-05-15T01:45:34.071Z,97565.53
2018-05-15T01:46:38.627Z,97567.22
2018-05-15T01:47:43.515Z,97571.88
2018-05-15T01:48:48.042Z,97566.88
2018-05-15T01:49:52.590Z,97568.83
2018-05-15T01:50:57.176Z,97566.80
2018-05-15T01:52:02.079Z,97565.44
2018-05-15T01:53:06.669Z,97571.18
2018-05-15T01:54:11.208Z,97569.92
2018-05-15T01:55:15.720Z,97574.20
2018-05-15T01:56:20.274Z,97569.01
2018-05-15T01:57:24.842Z,97574.45
2018-05-15T01:58:29.749Z,97574.56
2018-05-15T01:59:34.349Z,97573.95
2018-05-15T02:00:39.138Z,97573.50
2018-05-15T02:01:43.691Z,97573.56
2018-05-15T02:02:48.227Z,97569.05
2018-05-15T02:03:52.923Z,97572.84
2018-05-15T02:04:57.843Z,97563.25
2018-05-15T02:06:02.408Z,97565.89
2018-05-15T02:07:06.945Z,97562.56
2018-05-15T02:08:11.483Z,97560.06
2018-05-15T02:09:16.022Z,97563.55
2018-05-15T02:10:20.557Z,97562.97
2018-05-15T02:11:25.549Z,97565.59
2018-05-15T02:12:30.076Z,97567.74
2018-05-15T02:13:34.640Z,97566.94
2018-05-15T02:14:40.035Z,97565.50
2018-05-15T02:15:44.621Z,97567.64
2018-05-15T02:16:49.157Z,97561.75
2018-05-15T02:17:54.026Z,97568.69
2018-05-15T02:18:58.607Z,97564.31
2018-05-15T02:20:03.438Z,97568.91
2018-05-15T02:21:08.062Z,97567.34
2018-05-15T02:22:12.615Z,97564.23
2018-05-15T02:23:17.196Z,97553.62
2018-05-15T02:24:22.248Z,97557.52
2018-05-15T02:25:26.849Z,97566.64
2018-05-15T02:26:31.429Z,97563.39
2018-05-15T02:27:36.066Z,97561.63
2018-05-15T02:28:40.643Z,97564.84
2018-05-15T02:29:45.103Z,97563.47
2018-05-15T02:30:49.887Z,97564.59
2018-05-15T02:31:54.489Z,97561.92
2018-05-15T02:32:58.947Z,97562.45
2018-05-15T02:34:03.414Z,97567.42
2018-05-15T02:35:07.851Z,97564.05
2018-05-15T02:36:12.299Z,97567.07
2018-05-15T02:37:17.061Z,97568.13
2018-05-15T02:38:21.590Z,97561.13
2018-05-15T02:39:26.097Z,97561.42
2018-05-15T02:40:30.557Z,97550.34
2018-05-15T02:41:35.038Z,97550.80
2018-05-15T02:42:39.561Z,97550.50
2018-05-15T02:43:44.310Z,97552.88
2018-05-15T02:44:48.858Z,97554.82
2018-05-15T02:45:53.326Z,97549.92
2018-05-15T02:46:57.784Z,97551.69
2018-05-15T02:48:02.240Z,97553.32
2018-05-15T02:49:06.709Z,97552.30
2018-05-15T02:50:11.535Z,97564.39
2018-05-15T02:51:16.036Z,97567.01
2018-05-15T02:52:20.495Z,97565.56
2018-05-15T02:53:25.017Z,97563.92
2018-05-15T02:54:29.465Z,97559.57
2018-05-15T02:55:33.949Z,97555.31
2018-05-15T02:56:38.706Z,97555.45
2018-05-15T02:57:43.267Z,97556.92
2018-05-15T02:58:47.746Z,97551.88
2018-05-15T02:59:52.345Z,97557.98
2018-05-15T03:00:56.910Z,97559.00
2018-05-15T03:02:01.516Z,97556.47
2018-05-15T03:03:06.403Z,97556.11
2018-05-15T03:04:11.006Z,97560.95
2018-05-15T03:05:15.640Z,97559.33
2018-05-15T03:06:20.226Z,97553.95
2018-05-15T03:07:24.818Z,97562.83
2018-05-15T03:08:29.396Z,97557.89
2018-05-15T03:09:34.297Z,97558.07
2018-05-15T03:10:38.913Z,97560.16
2018-05-15T03:11:43.463Z,97562.22
2018-05-15T03:12:47.863Z,97557.93
2018-05-15T03:13:52.606Z,97556.88
2018-05-15T03:14:57.048Z,97552.20
2018-05-15T03:16:01.900Z,97548.43
2018-05-15T03:17:06.375Z,97554.01
2018-05-15T03:18:10.840Z,97559.69
2018-05-15T03:19:15.310Z,97558.50
2018-05-15T03:20:19.804Z,97557.19
2018-05-15T03:21:24.309Z,97556.52
2018-05-15T03:22:29.164Z,97557.28
2018-05-15T03:23:33.666Z,97556.30
2018-05-15T03:24:38.160Z,97562.42
2018-05-15T03:25:42.638Z,97556.91
2018-05-15T03:26:47.139Z,97550.05
2018-05-15T03:27:51.613Z,97555.55
2018-05-15T03:28:56.471Z,97552.11
2018-05-15T03:30:00.941Z,97553.47
2018-05-15T03:31:05.408Z,97553.92
2018-05-15T03:32:10.161Z,97562.66
2018-05-15T03:33:14.628Z,97562.59
2018-05-15T03:34:19.125Z,97556.85
2018-05-15T03:35:23.939Z,97558.17
2018-05-15T03:36:28.414Z,97560.19
2018-05-15T03:37:32.891Z,97560.41
2018-05-15T03:38:37.393Z,97565.84
2018-05-15T03:39:41.859Z,97562.90
2018-05-15T03:40:46.343Z,97566.84
2018-05-15T03:41:51.207Z,97565.99
2018-05-15T03:42:55.763Z,97579.28
2018-05-15T03:44:00.326Z,97570.88
2018-05-15T03:45:04.868Z,97577.47
2018-05-15T03:46:09.406Z,97574.29
2018-05-15T03:47:13.952Z,97575.19
2018-05-15T03:48:18.974Z,97579.09
2018-05-15T03:49:23.518Z,97577.27
2018-05-15T03:50:28.467Z,97578.25
2018-05-15T03:51:33.033Z,97580.96
2018-05-15T03:52:37.556Z,97578.98
2018-05-15T03:53:42.932Z,97576.56
2018-05-15T03:54:47.858Z,97575.55
2018-05-15T03:55:52.405Z,97574.35
2018-05-15T03:56:56.893Z,97574.12
2018-05-15T03:58:01.376Z,97566.64
2018-05-15T03:59:05.864Z,97572.26
2018-05-15T04:00:15.559Z,97577.46
2018-05-15T04:01:25.410Z,97576.99
2018-05-15T04:04:39.198Z,97580.53
2018-05-15T04:05:49.145Z,97581.02
2018-05-15T04:08:05.885Z,97573.17
2018-05-15T04:09:10.341Z,97578.10
2018-05-15T04:10:14.813Z,97583.20
2018-05-15T04:11:19.800Z,97574.88
2018-05-15T04:12:24.561Z,97586.98
2018-05-15T04:13:28.995Z,97584.33
2018-05-15T04:14:33.555Z,97583.66
2018-05-15T04:15:38.034Z,97591.98
2018-05-15T04:16:42.506Z,97589.98
2018-05-15T04:17:46.974Z,97589.47
2018-05-15T04:18:51.724Z,97591.21
2018-05-15T04:19:56.205Z,97581.98
2018-05-15T04:21:00.690Z,97586.18
2018-05-15T04:22:05.151Z,97583.55
2018-05-15T04:23:09.633Z,97579.20
2018-05-15T04:24:14.167Z,97575.25
2018-05-15T04:25:19.013Z,97587.11
2018-05-15T04:26:23.610Z,97580.34
2018-05-15T04:27:28.193Z,97582.06
2018-05-15T04:28:32.754Z,97585.78
2018-05-15T04:29:37.329Z,97583.31
2018-05-15T04:30:41.901Z,97580.33
2018-05-15T04:31:47.673Z,97582.63
2018-05-15T04:32:52.298Z,97584.92
2018-05-15T04:33:56.861Z,97586.36
2018-05-15T04:35:01.440Z,97587.91
2018-05-15T04:36:06.042Z,97587.63
2018-05-15T04:37:10.637Z,97586.76
2018-05-15T04:38:15.628Z,97591.23
2018-05-15T04:39:20.208Z,97586.77
2018-05-15T04:40:25.090Z,97589.86
2018-05-15T04:41:29.628Z,97588.37
2018-05-15T04:42:34.141Z,97589.23
2018-05-15T04:43:38.711Z,97589.61
2018-05-15T04:44:43.570Z,97593.69
2018-05-15T04:45:48.135Z,97589.34
2018-05-15T04:46:52.718Z,97587.43
2018-05-15T04:47:57.367Z,97587.55
2018-05-15T04:49:01.850Z,97591.97
2018-05-15T04:50:06.352Z,97589.50
2018-05-15T04:51:11.196Z,97586.28
2018-05-15T04:52:15.690Z,97589.09
2018-05-15T04:53:20.167Z,97586.19
2018-05-15T04:54:24.632Z,97592.03
2018-05-15T04:55:29.129Z,97591.98
2018-05-15T04:56:33.618Z,97590.02
2018-05-15T04:57:38.597Z,97595.77
2018-05-15T04:58:43.049Z,97601.39
2018-05-15T04:59:47.533Z,97599.46
2018-05-15T05:00:52.175Z,97598.48
2018-05-15T05:01:56.830Z,97600.59
2018-05-15T05:03:01.404Z,97607.09
2018-05-15T05:04:06.278Z,97603.42
2018-05-15T05:05:10.847Z,97605.09
2018-05-15T05:06:15.381Z,97609.73
2018-05-15T05:07:19.983Z,97607.65
2018-05-15T05:08:24.518Z,97608.87
2018-05-15T05:09:29.093Z,97605.19
2018-05-15T05:10:33.971Z,97616.62
2018-05-15T05:11:38.419Z,97616.50
2018-05-15T05:12:42.947Z,97620.00
2018-05-15T05:13:47.433Z,97623.11
2018-05-15T05:14:51.970Z,97620.23
2018-05-15T05:15:56.464Z,97626.71
2018-05-15T05:17:01.220Z,97631.85
2018-05-15T05:18:05.699Z,97631.59
2018-05-15T05:19:10.162Z,97630.51
2018-05-15T05:20:14.614Z,97632.91
2018-05-15T05:21:19.106Z,97630.97
2018-05-15T05:22:23.597Z,97640.05
2018-05-15T05:23:28.364Z,97641.48
2018-05-15T05:24:32.890Z,97640.64
2018-05-15T05:25:37.353Z,97647.30
2018-05-15T05:26:41.830Z,97646.45
2018-05-15T05:27:46.396Z,97643.83
2018-05-15T05:28:50.873Z,97647.45
2018-05-15T05:29:55.696Z,97649.05
2018-05-15T05:31:00.259Z,97647.28
2018-05-15T05:32:04.769Z,97647.09
2018-05-15T05:33:10.420Z,97649.93
2018-05-15T05:34:14.883Z,97647.72
2018-05-15T05:35:19.360Z,97651.38
2018-05-15T05:36:23.884Z,97650.37
2018-05-15T05:37:28.343Z,97661.72
2018-05-15T05:38:32.943Z,97661.20
2018-05-15T05:39:37.417Z,97664.14
2018-05-15T05:40:42.003Z,97668.94
2018-05-15T05:41:46.884Z,97661.47
2018-05-15T05:42:51.470Z,97672.54
2018-05-15T05:43:56.019Z,97678.39
2018-05-15T05:45:00.646Z,97675.27
2018-05-15T05:46:05.169Z,97680.08
2018-05-15T05:47:09.712Z,97674.80
2018-05-15T05:48:14.754Z,97679.02
2018-05-15T05:49:19.425Z,97682.28
2018-05-15T05:50:23.972Z,97675.38
2018-05-15T05:51:28.727Z,97682.06
2018-05-15T05:52:33.294Z,97678.86
2018-05-15T05:53:37.879Z,97679.30
2018-05-15T05:54:42.793Z,97686.62
2018-05-15T05:55:47.414Z,97684.46
2018-05-15T05:56:52.001Z,97682.48
2018-05-15T05:57:56.621Z,97689.06
2018-05-15T05:59:01.189Z,97682.67
2018-05-15T06:00:05.857Z,97682.44
2018-05-15T06:01:11.457Z,97688.66
2018-05-15T06:02:16.101Z,97691.21
2018-05-15T06:03:20.727Z,97688.22
2018-05-15T06:04:25.331Z,97697.31
2018-05-15T06:05:29.894Z,97691.23
2018-05-15T06:06:34.533Z,97697.35
2018-05-15T06:07:39.631Z,97694.33
2018-05-15T06:08:44.613Z,97695.56
2018-05-15T06:09:49.351Z,97695.53
2018-05-15T06:10:53.919Z,97695.71
2018-05-15T06:11:58.537Z,97700.72
2018-05-15T06:13:03.254Z,97691.71
2018-05-15T06:14:08.303Z,97701.60
2018-05-15T06:15:12.847Z,97698.72
2018-05-15T06:16:17.555Z,97693.18
2018-05-15T06:17:22.217Z,97699.05
2018-05-15T06:18:26.817Z,97698.86
2018-05-15T06:19:31.463Z,97698.98
2018-05-15T06:20:36.141Z,97708.02
2018-05-15T06:21:40.800Z,97711.37
2018-05-15T06:22:45.512Z,97709.56
2018-05-15T06:23:50.185Z,97712.97
2018-05-15T06:24:54.790Z,97710.66
2018-05-15T06:26:00.014Z,97709.33
2018-05-15T06:27:04.598Z,97715.34
2018-05-15T06:28:09.347Z,97716.98
2018-05-15T06:29:14.586Z,97724.17
2018-05-15T06:30:19.738Z,97723.17
2018-05-15T06:31:24.441Z,97717.61
2018-05-15T06:32:29.391Z,97717.19
2018-05-15T06:33:34.032Z,97716.52
2018-05-15T06:34:57.739Z,97722.44
2018-05-15T06:36:03.249Z,97719.81
2018-05-15T06:37:07.856Z,97721.83
2018-05-15T06:38:12.484Z,97719.81
2018-05-15T06:40:36.503Z,97721.81
2018-05-15T06:41:41.131Z,97718.18
2018-05-15T06:42:45.738Z,97719.34
2018-05-15T06:43:51.722Z,97725.33
2018-05-15T06:44:56.331Z,97716.67
2018-05-15T06:46:01.851Z,97711.44
2018-05-15T06:47:06.566Z,97709.02
2018-05-15T06:48:11.564Z,97704.05
2018-05-15T06:49:16.267Z,97715.03
2018-05-15T06:50:20.973Z,97713.67
2018-05-15T06:51:26.793Z,97716.33
2018-05-15T06:52:31.814Z,97714.58
2018-05-15T06:53:36.459Z,97716.92
2018-05-15T06:54:41.909Z,97712.45
2018-05-15T06:55:46.503Z,97710.05
2018-05-15T06:56:51.215Z,97713.05
2018-05-15T06:57:55.829Z,97717.80
2018-05-15T06:59:00.968Z,97716.48
2018-05-15T07:00:05.594Z,97719.39
2018-05-15T07:01:10.275Z,97722.63
2018-05-15T07:02:14.977Z,97724.83
2018-05-15T07:03:19.564Z,97713.13
2018-05-15T07:04:24.183Z,97725.33
2018-05-15T07:05:29.273Z,97725.44
2018-05-15T07:06:34.003Z,97720.45
2018-05-15T07:07:38.690Z,97721.84
2018-05-15T07:08:43.453Z,97718.77
2018-05-15T07:09:48.025Z,97715.12
2018-05-15T07:10:52.602Z,97716.86
2018-05-15T07:11:57.678Z,97715.89
2018-05-15T07:13:02.276Z,97726.53
2018-05-15T07:14:06.979Z,97716.84
2018-05-15T07:15:11.609Z,97711.30
2018-05-15T07:16:16.276Z,97713.64
2018-05-15T07:17:21.584Z,97719.98
2018-05-15T07:18:26.548Z,97718.53
2018-05-15T07:19:31.215Z,97720.95
2018-05-15T07:20:35.786Z,97723.41
2018-05-15T07:21:40.491Z,97726.70
2018-05-15T07:22:45.207Z,97720.66
2018-05-15T07:23:49.822Z,97725.62
2018-05-15T07:24:54.818Z,97719.12
2018-05-15T07:25:59.420Z,97727.55
2018-05-15T07:27:04.046Z,97724.67
2018-05-15T07:28:08.648Z,97725.81
2018-05-15T07:29:13.319Z,97719.87
2018-05-15T07:30:17.835Z,97725.38
2018-05-15T07:31:22.719Z,97734.32
2018-05-15T07:32:27.330Z,97730.95
2018-05-15T07:33:31.876Z,97730.27
2018-05-15T07:34:36.448Z,97726.91
2018-05-15T07:35:41.005Z,97731.91
2018-05-15T07:36:45.610Z,97734.36
2018-05-15T07:37:50.601Z,97728.52
2018-05-15T07:38:55.157Z,97732.16
2018-05-15T07:40:00.913Z,97720.27
2018-05-15T07:41:05.521Z,97720.53
2018-05-15T07:42:10.011Z,97731.31
2018-05-15T07:43:14.536Z,97726.60
2018-05-15T07:44:19.500Z,97723.14
2018-05-15T07:45:24.025Z,97717.92
2018-05-15T07:46:28.559Z,97727.44
2018-05-15T07:47:33.130Z,97722.23
2018-05-15T07:48:37.722Z,97726.56
2018-05-15T07:49:42.384Z,97732.39
2018-05-15T07:50:47.397Z,97728.16
2018-05-15T07:51:51.987Z,97727.29
2018-05-15T07:52:56.524Z,97726.18
2018-05-15T07:54:01.139Z,97731.31
2018-05-15T07:55:05.762Z,97728.82
2018-05-15T07:56:10.675Z,97723.39
2018-05-15T07:57:15.881Z,97732.79
2018-05-15T07:58:20.491Z,97726.28
2018-05-15T07:59:25.253Z,97731.02
2018-05-15T08:00:29.778Z,97727.47
2018-05-15T08:01:34.304Z,97729.52
2018-05-15T08:02:38.865Z,97726.88
2018-05-15T08:03:43.758Z,97721.55
2018-05-15T08:04:48.251Z,97724.67
2018-05-15T08:05:52.742Z,97713.01
2018-05-15T08:06:57.334Z,97721.30
2018-05-15T08:08:01.870Z,97722.94
2018-05-15T08:09:06.662Z,97718.26
2018-05-15T08:10:11.695Z,97728.42
2018-05-15T08:11:16.246Z,97727.22
2018-05-15T08:12:20.757Z,97731.06
2018-05-15T08:13:25.385Z,97733.36
2018-05-15T08:14:29.962Z,97729.09
2018-05-15T08:15:34.676Z,97738.69
2018-05-15T08:16:39.623Z,97728.05
2018-05-15T08:17:44.249Z,97737.39
2018-05-15T08:18:48.774Z,97727.20
2018-05-15T08:19:53.569Z,97736.05
2018-05-15T08:20:58.105Z,97737.64
2018-05-15T08:22:02.760Z,97722.78
2018-05-15T08:23:07.692Z,97725.66
2018-05-15T08:24:12.212Z,97727.07
2018-05-15T08:25:16.757Z,97732.48
2018-05-15T08:26:21.410Z,97737.13
2018-05-15T08:27:25.950Z,97741.78
2018-05-15T08:28:30.448Z,97741.26
2018-05-15T08:29:35.420Z,97738.16
2018-05-15T08:30:39.935Z,97748.82
2018-05-15T08:31:44.502Z,97760.61
2018-05-15T08:32:49.022Z,97750.33
2018-05-15T08:33:53.555Z,97750.66
2018-05-15T08:34:58.242Z,97739.32
2018-05-15T08:36:03.267Z,97756.95
2018-05-15T08:37:07.793Z,97742.72
2018-05-15T08:38:12.340Z,97749.58
2018-05-15T08:39:16.916Z,97750.27
2018-05-15T08:40:21.428Z,97754.94
2018-05-15T08:41:26.229Z,97744.86
2018-05-15T08:42:30.904Z,97757.18
2018-05-15T08:43:35.501Z,97751.47
2018-05-15T08:44:40.080Z,97755.66
2018-05-15T08:45:44.592Z,97765.42
2018-05-15T08:46:49.201Z,97755.41
2018-05-15T08:47:53.746Z,97756.13
2018-05-15T08:48:58.305Z,97759.42
2018-05-15T08:50:02.882Z,97758.39
2018-05-15T08:51:07.538Z,97762.70
2018-05-15T08:52:13.165Z,97758.31
2018-05-15T08:53:17.781Z,97753.53
2018-05-15T08:54:22.842Z,97760.84
2018-05-15T08:55:27.331Z,97762.84
2018-05-15T08:56:31.942Z,97762.21
2018-05-15T08:57:36.530Z,97768.13
2018-05-15T08:58:41.030Z,97760.59
2018-05-15T08:59:45.543Z,97760.36
2018-05-15T09:00:50.520Z,97766.92
2018-05-15T09:01:55.253Z,97754.14
2018-05-15T09:02:59.806Z,97762.78
2018-05-15T09:04:04.390Z,97769.19
2018-05-15T09:05:09.049Z,97768.63
2018-05-15T09:06:14.119Z,97779.56
2018-05-15T09:07:19.092Z,97766.67
2018-05-15T09:08:23.636Z,97768.61
2018-05-15T09:09:28.198Z,97773.34
2018-05-15T09:10:32.748Z,97770.20
2018-05-15T09:11:37.383Z,97766.00
2018-05-15T09:12:42.113Z,97775.08
2018-05-15T09:13:47.311Z,97771.84
2018-05-15T09:14:51.982Z,97758.88
2018-05-15T09:15:56.771Z,97758.09
2018-05-15T09:17:01.591Z,97758.88
2018-05-15T09:18:07.469Z,97761.66
2018-05-15T09:19:12.090Z,97768.87
2018-05-15T09:20:17.077Z,97767.87
2018-05-15T09:21:21.669Z,97772.12
2018-05-15T09:22:26.233Z,97777.13
2018-05-15T09:23:38.916Z,97765.28
2018-05-15T09:24:43.455Z,97770.36
2018-05-15T09:25:48.113Z,97764.70
2018-05-15T09:26:53.110Z,97775.80
2018-05-15T09:27:57.632Z,97761.73
2018-05-15T09:29:02.174Z,97765.65
2018-05-15T09:30:06.685Z,97765.08
2018-05-15T09:31:11.400Z,97767.72
2018-05-15T09:32:15.944Z,97761.97
2018-05-15T09:33:20.890Z,97759.89
2018-05-15T09:34:25.530Z,97756.34
2018-05-15T09:35:30.084Z,97764.77
2018-05-15T09:36:34.614Z,97767.97
2018-05-15T09:37:39.219Z,97774.36
2018-05-15T09:38:43.758Z,97781.98
2018-05-15T09:39:48.736Z,97776.71
2018-05-15T09:40:53.439Z,97763.52
2018-05-15T09:41:57.934Z,97780.44
2018-05-15T09:43:02.427Z,97782.03
2018-05-15T09:44:07.244Z,97774.24
2018-05-15T09:45:11.738Z,97770.27
2018-05-15T09:46:17.028Z,97777.78
2018-05-15T09:47:21.732Z,97776.95
2018-05-15T09:48:26.364Z,97783.15
2018-05-15T09:49:30.939Z,97781.16
2018-05-15T09:50:35.759Z,97775.08
2018-05-15T09:51:40.264Z,97771.25
2018-05-15T09:52:45.339Z,97773.47
2018-05-15T09:53:49.966Z,97780.28
2018-05-15T09:54:54.460Z,97781.95
2018-05-15T09:55:59.064Z,97782.97
2018-05-15T09:57:03.571Z,97780.30
2018-05-15T09:58:08.168Z,97775.03
2018-05-15T09:59:13.098Z,97775.22
2018-05-15T10:00:22.575Z,97777.43
2018-05-15T10:01:27.062Z,97778.89
2018-05-15T10:02:31.611Z,97774.34
2018-05-15T10:03:36.212Z,97775.52
2018-05-15T10:04:41.102Z,97777.52
2018-05-15T10:05:46.081Z,97776.63
2018-05-15T10:06:50.617Z,97780.84
2018-05-15T10:07:55.221Z,97777.24
2018-05-15T10:08:59.748Z,97773.33
2018-05-15T10:10:04.538Z,97775.33
2018-05-15T10:11:11.042Z,97776.95
2018-05-15T10:12:16.046Z,97774.39
2018-05-15T10:13:20.590Z,97778.00
2018-05-15T10:14:25.153Z,97767.44
2018-05-15T10:15:29.693Z,97766.73
2018-05-15T10:16:36.006Z,97762.39
2018-05-15T10:17:40.639Z,97763.67
2018-05-15T10:18:45.552Z,97777.66
2018-05-15T10:19:50.077Z,97771.53
2018-05-15T10:20:54.611Z,97780.30
2018-05-15T10:21:59.121Z,97773.34
2018-05-15T10:23:03.637Z,97761.61
2018-05-15T10:24:08.158Z,97767.22
2018-05-15T10:25:13.060Z,97766.52
2018-05-15T10:26:17.676Z,97769.98
2018-05-15T10:27:22.364Z,97762.55
2018-05-15T10:28:26.863Z,97768.00
2018-05-15T10:29:31.480Z,97768.81
2018-05-15T10:30:36.002Z,97767.03
2018-05-15T10:31:40.947Z,97770.56
2018-05-15T10:32:45.506Z,97764.72
2018-05-15T10:33:50.117Z,97768.50
2018-05-15T10:34:54.603Z,97756.88
2018-05-15T10:35:59.111Z,97764.08
2018-05-15T10:37:03.663Z,97754.16
2018-05-15T10:38:08.592Z,97751.44
2018-05-15T10:39:13.068Z,97762.33
2018-05-15T10:40:17.561Z,97764.01
2018-05-15T10:41:22.068Z,97764.55
2018-05-15T10:42:26.607Z,97757.02
2018-05-15T10:43:31.108Z,97758.89
2018-05-15T10:44:37.717Z,97756.45
2018-05-15T10:45:42.937Z,97752.88
2018-05-15T10:46:48.163Z,97758.84
2018-05-15T10:47:54.522Z,97759.81
2018-05-15T10:48:59.879Z,97756.75
2018-05-15T10:50:05.771Z,97758.45
2018-05-15T10:51:11.190Z,97763.17
2018-05-15T10:52:15.762Z,97752.20
2018-05-15T10:53:21.909Z,97758.16
2018-05-15T10:54:28.819Z,97752.97
2018-05-15T10:55:34.580Z,97754.97
2018-05-15T10:56:40.470Z,97755.84
2018-05-15T10:57:45.612Z,97749.64
2018-05-15T10:58:50.415Z,97759.03
2018-05-15T10:59:55.534Z,97752.55
2018-05-15T11:01:04.599Z,97747.72
2018-05-15T11:02:14.212Z,97746.80
2018-05-15T11:03:21.610Z,97740.46
2018-05-15T11:04:26.694Z,97749.53
2018-05-15T11:05:32.782Z,97749.90
2018-05-15T11:06:37.461Z,97747.73
2018-05-15T11:07:42.017Z,97752.22
2018-05-15T11:08:47.149Z,97758.09
2018-05-15T11:09:52.069Z,97758.25
2018-05-15T11:10:56.589Z,97738.63
2018-05-15T11:12:01.231Z,97758.47
2018-05-15T11:13:05.742Z,97753.50
2018-05-15T11:14:10.221Z,97746.88
2018-05-15T11:15:14.779Z,97752.33
2018-05-15T11:16:19.713Z,97756.88
2018-05-15T11:17:24.282Z,97753.05
2018-05-15T11:18:31.685Z,97752.19
2018-05-15T11:19:41.443Z,97743.95
2018-05-15T11:22:56.174Z,97749.77
2018-05-15T11:24:05.932Z,97749.30
2018-05-15T11:25:10.945Z,97738.63
2018-05-15T11:26:15.516Z,97745.31
2018-05-15T11:27:20.159Z,97747.95
2018-05-15T11:28:25.208Z,97746.86
2018-05-15T11:29:29.900Z,97740.81
2018-05-15T11:30:34.642Z,97754.36
2018-05-15T11:31:39.137Z,97742.24
2018-05-15T11:32:43.701Z,97729.09
2018-05-15T11:33:48.189Z,97735.20
2018-05-15T11:34:53.079Z,97732.06
2018-05-15T11:35:57.623Z,97737.11
2018-05-15T11:37:02.324Z,97730.15
2018-05-15T11:38:06.859Z,97724.53
2018-05-15T11:39:11.410Z,97731.91
2018-05-15T11:40:16.131Z,97734.75
2018-05-15T11:41:20.970Z,97734.34
2018-05-15T11:42:25.526Z,97734.53
2018-05-15T11:43:30.041Z,97730.27
2018-05-15T11:44:34.549Z,97738.48
2018-05-15T11:45:39.109Z,97725.73
2018-05-15T11:46:43.642Z,97732.87
2018-05-15T11:47:48.946Z,97737.92
2018-05-15T11:48:54.029Z,97726.78
2018-05-15T11:49:58.788Z,97727.27
2018-05-15T11:51:03.681Z,97728.05
2018-05-15T11:52:08.585Z,97733.24
2018-05-15T11:53:13.255Z,97729.83
2018-05-15T11:54:17.286Z,97737.47
2018-05-15T11:55:23.237Z,97731.89
2018-05-15T11:56:27.759Z,97737.22
2018-05-15T11:57:32.684Z,97730.33
2018-05-15T11:58:37.435Z,97728.77
2018-05-15T11:59:42.592Z,97726.53
2018-05-15T12:00:47.169Z,97731.48
2018-05-15T12:01:51.735Z,97728.80
2018-05-15T12:02:56.294Z,97725.03
2018-05-15T12:04:00.901Z,97734.20
2018-05-15T12:05:05.481Z,97732.05
2018-05-15T12:06:10.586Z,97727.52
2018-05-15T12:07:15.480Z,97733.14
2018-05-15T12:08:20.137Z,97728.81
2018-05-15T12:09:24.868Z,97729.03
2018-05-15T12:10:29.451Z,97723.74
2018-05-15T12:11:34.071Z,97732.52
2018-05-15T12:12:38.896Z,97725.76
2018-05-15T12:13:43.389Z,97733.06
2018-05-15T12:14:47.940Z,97729.06
2018-05-15T12:15:52.967Z,97731.23
2018-05-15T12:16:57.494Z,97730.88
2018-05-15T12:18:02.013Z,97734.80
2018-05-15T12:19:07.023Z,97731.21
2018-05-15T12:20:11.671Z,97735.70
2018-05-15T12:21:16.447Z,97725.64
2018-05-15T12:22:20.951Z,97727.92
2018-05-15T12:23:26.234Z,97724.38
2018-05-15T12:24:30.762Z,97724.06
2018-05-15T12:25:35.601Z,97728.70
2018-05-15T12:26:40.284Z,97732.16
2018-05-15T12:27:44.993Z,97732.11
2018-05-15T12:28:50.233Z,97734.92
2018-05-15T12:29:55.785Z,97722.35
2018-05-15T12:31:00.660Z,97722.61
2018-05-15T12:32:05.625Z,97718.30
2018-05-15T12:33:10.213Z,97714.37
2018-05-15T12:34:14.748Z,97716.77
2018-05-15T12:35:19.259Z,97715.81
2018-05-15T12:36:23.763Z,97722.69
2018-05-15T12:37:28.285Z,97724.20
2018-05-15T12:38:33.184Z,97722.66
2018-05-15T12:39:37.698Z,97719.25
2018-05-15T12:40:42.524Z,97721.63
2018-05-15T12:41:47.256Z,97722.13
2018-05-15T12:42:51.857Z,97725.36
2018-05-15T12:43:56.341Z,97722.17
2018-05-15T12:45:01.277Z,97725.23
2018-05-15T12:46:05.825Z,97723.39
2018-05-15T12:47:10.323Z,97715.80
2018-05-15T12:48:14.834Z,97713.34